sensor_id;sensor_type;location;lat;lon;timestamp;pressure;altitude;pressure_sealevel;temperature;humidity
76728;BME280;65652;53.132;18.026;2022-12-20T00:01:21;101532.18;;;1.90;83.82
76728;BME280;65652;53.132;18.026;2022-12-20T00:03:50;101534.70;;;1.93;83.62
76728;BME280;65652;53.132;18.026;2022-12-20T00:06:18;101532.84;;;1.96;83.70
76728;BME280;65652;53.132;18.026;2022-12-20T00:08:46;101536.23;;;1.98;83.68
76728;BME280;65652;53.132;18.026;2022-12-20T00:11:13;101540.97;;;2.01;83.70
76728;BME280;65652;53.132;18.026;2022-12-20T00:13:40;101535.48;;;2.04;83.75
76728;BME280;65652;53.132;18.026;2022-12-20T00:18:35;101525.70;;;2.04;83.45
76728;BME280;65652;53.132;18.026;2022-12-20T00:21:04;101520.27;;;2.05;83.49
76728;BME280;65652;53.132;18.026;2022-12-20T00:23:32;101519.59;;;2.05;83.57
76728;BME280;65652;53.132;18.026;2022-12-20T00:26:10;101520.77;;;2.06;83.62
76728;BME280;65652;53.132;18.026;2022-12-20T00:28:39;101516.02;;;2.07;83.74
76728;BME280;65652;53.132;18.026;2022-12-20T00:31:07;101518.91;;;2.08;83.87
76728;BME280;65652;53.132;18.026;2022-12-20T00:33:35;101518.17;;;2.10;83.82
76728;BME280;65652;53.132;18.026;2022-12-20T00:36:03;101525.55;;;2.12;83.69
76728;BME280;65652;53.132;18.026;2022-12-20T00:38:31;101528.08;;;2.15;83.89
76728;BME280;65652;53.132;18.026;2022-12-20T00:41:07;101523.63;;;2.17;83.75
76728;BME280;65652;53.132;18.026;2022-12-20T00:43:38;101525.15;;;2.18;83.76
76728;BME280;65652;53.132;18.026;2022-12-20T00:46:06;101524.48;;;2.18;83.84
76728;BME280;65652;53.132;18.026;2022-12-20T00:48:34;101519.95;;;2.18;83.73
76728;BME280;65652;53.132;18.026;2022-12-20T00:51:13;101509.98;;;2.19;83.81
76728;BME280;65652;53.132;18.026;2022-12-20T00:53:41;101507.38;;;2.18;84.04
76728;BME280;65652;53.132;18.026;2022-12-20T00:56:09;101505.52;;;2.21;83.69
76728;BME280;65652;53.132;18.026;2022-12-20T00:58:37;101509.05;;;2.24;83.79
76728;BME280;65652;53.132;18.026;2022-12-20T01:01:13;101503.77;;;2.26;83.89
76728;BME280;65652;53.132;18.026;2022-12-20T01:03:41;101503.33;;;2.28;83.70
76728;BME280;65652;53.132;18.026;2022-12-20T01:06:09;101506.27;;;2.28;83.84
76728;BME280;65652;53.132;18.026;2022-12-20T01:08:37;101505.21;;;2.29;83.80
76728;BME280;65652;53.132;18.026;2022-12-20T01:11:08;101503.12;;;2.29;83.79
76728;BME280;65652;53.132;18.026;2022-12-20T01:13:37;101508.48;;;2.30;83.83
76728;BME280;65652;53.132;18.026;2022-12-20T01:16:13;101511.57;;;2.31;83.76
76728;BME280;65652;53.132;18.026;2022-12-20T01:18:41;101512.23;;;2.32;83.86
76728;BME280;65652;53.132;18.026;2022-12-20T01:21:10;101500.83;;;2.34;83.84
76728;BME280;65652;53.132;18.026;2022-12-20T01:23:38;101492.95;;;2.34;83.79
76728;BME280;65652;53.132;18.026;2022-12-20T01:26:06;101487.84;;;2.36;83.85
76728;BME280;65652;53.132;18.026;2022-12-20T01:28:39;101487.77;;;2.38;83.80
76728;BME280;65652;53.132;18.026;2022-12-20T01:31:08;101489.19;;;2.37;83.79
76728;BME280;65652;53.132;18.026;2022-12-20T01:33:35;101475.15;;;2.35;83.72
76728;BME280;65652;53.132;18.026;2022-12-20T01:36:05;101477.23;;;2.36;83.65
76728;BME280;65652;53.132;18.026;2022-12-20T01:38:32;101464.34;;;2.35;83.78
76728;BME280;65652;53.132;18.026;2022-12-20T01:40:59;101463.74;;;2.37;83.46
76728;BME280;65652;53.132;18.026;2022-12-20T01:44:04;101461.26;;;2.38;83.52
76728;BME280;65652;53.132;18.026;2022-12-20T01:46:33;101450.89;;;2.40;83.39
76728;BME280;65652;53.132;18.026;2022-12-20T01:51:31;101461.16;;;2.40;83.06
76728;BME280;65652;53.132;18.026;2022-12-20T01:54:07;101469.35;;;2.40;83.39
76728;BME280;65652;53.132;18.026;2022-12-20T01:56:36;101467.69;;;2.39;83.32
76728;BME280;65652;53.132;18.026;2022-12-20T01:59:06;101464.23;;;2.38;83.19
76728;BME280;65652;53.132;18.026;2022-12-20T02:01:34;101465.95;;;2.39;83.07
76728;BME280;65652;53.132;18.026;2022-12-20T02:04:01;101460.11;;;2.41;83.09
76728;BME280;65652;53.132;18.026;2022-12-20T02:06:29;101465.30;;;2.42;83.19
76728;BME280;65652;53.132;18.026;2022-12-20T02:08:58;101465.30;;;2.41;83.11
76728;BME280;65652;53.132;18.026;2022-12-20T02:25:10;101464.77;;;2.34;83.00
76728;BME280;65652;53.132;18.026;2022-12-20T02:27:47;101452.02;;;2.34;83.00
76728;BME280;65652;53.132;18.026;2022-12-20T02:30:22;101453.66;;;2.37;82.85
76728;BME280;65652;53.132;18.026;2022-12-20T02:33:01;101451.27;;;2.39;82.88
76728;BME280;65652;53.132;18.026;2022-12-20T02:35:32;101453.87;;;2.40;82.86
76728;BME280;65652;53.132;18.026;2022-12-20T02:38:22;101446.40;;;2.40;82.69
76728;BME280;65652;53.132;18.026;2022-12-20T02:43:28;101446.98;;;2.38;82.86
76728;BME280;65652;53.132;18.026;2022-12-20T02:46:18;101448.40;;;2.37;82.87
76728;BME280;65652;53.132;18.026;2022-12-20T02:48:47;101442.34;;;2.36;82.97
76728;BME280;65652;53.132;18.026;2022-12-20T02:51:17;101440.34;;;2.39;82.80
76728;BME280;65652;53.132;18.026;2022-12-20T02:53:46;101439.02;;;2.41;82.93
76728;BME280;65652;53.132;18.026;2022-12-20T02:56:34;101439.47;;;2.43;82.77
76728;BME280;65652;53.132;18.026;2022-12-20T03:01:44;101446.70;;;2.45;82.47
76728;BME280;65652;53.132;18.026;2022-12-20T03:04:12;101450.88;;;2.45;82.65
76728;BME280;65652;53.132;18.026;2022-12-20T03:06:55;101449.14;;;2.44;82.51
76728;BME280;65652;53.132;18.026;2022-12-20T03:09:22;101453.21;;;2.43;82.64
76728;BME280;65652;53.132;18.026;2022-12-20T03:11:51;101459.64;;;2.44;82.42
76728;BME280;65652;53.132;18.026;2022-12-20T03:14:19;101460.34;;;2.44;82.60
76728;BME280;65652;53.132;18.026;2022-12-20T03:16:46;101464.80;;;2.45;82.59
76728;BME280;65652;53.132;18.026;2022-12-20T03:19:13;101461.95;;;2.47;82.60
76728;BME280;65652;53.132;18.026;2022-12-20T03:21:40;101462.60;;;2.48;82.34
76728;BME280;65652;53.132;18.026;2022-12-20T03:24:07;101454.35;;;2.49;82.41
76728;BME280;65652;53.132;18.026;2022-12-20T03:26:34;101452.75;;;2.50;82.42
76728;BME280;65652;53.132;18.026;2022-12-20T03:29:01;101446.83;;;2.50;82.40
76728;BME280;65652;53.132;18.026;2022-12-20T03:31:28;101437.89;;;2.47;82.32
76728;BME280;65652;53.132;18.026;2022-12-20T03:33:55;101428.98;;;2.47;82.26
76728;BME280;65652;53.132;18.026;2022-12-20T03:36:22;101434.73;;;2.47;82.30
76728;BME280;65652;53.132;18.026;2022-12-20T03:38:52;101435.09;;;2.47;82.41
76728;BME280;65652;53.132;18.026;2022-12-20T03:41:21;101440.77;;;2.49;82.35
76728;BME280;65652;53.132;18.026;2022-12-20T03:43:49;101444.33;;;2.51;82.25
76728;BME280;65652;53.132;18.026;2022-12-20T03:46:16;101446.19;;;2.53;82.36
76728;BME280;65652;53.132;18.026;2022-12-20T03:48:43;101452.02;;;2.55;82.30
76728;BME280;65652;53.132;18.026;2022-12-20T03:51:11;101454.84;;;2.55;82.07
76728;BME280;65652;53.132;18.026;2022-12-20T03:53:38;101457.34;;;2.53;82.07
76728;BME280;65652;53.132;18.026;2022-12-20T03:56:05;101446.92;;;2.51;82.18
76728;BME280;65652;53.132;18.026;2022-12-20T03:58:32;101449.84;;;2.49;82.18
76728;BME280;65652;53.132;18.026;2022-12-20T04:00:59;101445.39;;;2.47;82.36
76728;BME280;65652;53.132;18.026;2022-12-20T04:03:39;101441.61;;;2.45;82.11
76728;BME280;65652;53.132;18.026;2022-12-20T04:06:06;101433.74;;;2.46;82.21
76728;BME280;65652;53.132;18.026;2022-12-20T04:08:33;101434.23;;;2.47;82.19
76728;BME280;65652;53.132;18.026;2022-12-20T04:11:00;101430.88;;;2.48;82.18
76728;BME280;65652;53.132;18.026;2022-12-20T04:13:53;101421.86;;;2.50;81.99
76728;BME280;65652;53.132;18.026;2022-12-20T04:16:25;101416.77;;;2.52;81.88
76728;BME280;65652;53.132;18.026;2022-12-20T04:18:53;101417.16;;;2.51;82.05
76728;BME280;65652;53.132;18.026;2022-12-20T04:21:22;101422.39;;;2.51;81.98
76728;BME280;65652;53.132;18.026;2022-12-20T04:23:49;101427.66;;;2.50;82.05
76728;BME280;65652;53.132;18.026;2022-12-20T04:26:16;101425.34;;;2.47;81.96
76728;BME280;65652;53.132;18.026;2022-12-20T04:28:43;101430.42;;;2.46;82.08
76728;BME280;65652;53.132;18.026;2022-12-20T04:31:10;101423.13;;;2.45;82.14
76728;BME280;65652;53.132;18.026;2022-12-20T04:33:38;101419.13;;;2.46;82.15
76728;BME280;65652;53.132;18.026;2022-12-20T04:36:06;101417.85;;;2.47;82.06
76728;BME280;65652;53.132;18.026;2022-12-20T04:38:33;101421.26;;;2.49;81.95
76728;BME280;65652;53.132;18.026;2022-12-20T04:41:00;101427.14;;;2.50;82.03
76728;BME280;65652;53.132;18.026;2022-12-20T04:43:29;101430.61;;;2.50;81.92
76728;BME280;65652;53.132;18.026;2022-12-20T04:45:57;101431.86;;;2.49;81.91
76728;BME280;65652;53.132;18.026;2022-12-20T04:48:26;101437.66;;;2.48;81.81
76728;BME280;65652;53.132;18.026;2022-12-20T04:50:54;101438.65;;;2.49;81.94
76728;BME280;65652;53.132;18.026;2022-12-20T04:53:22;101436.35;;;2.50;81.71
76728;BME280;65652;53.132;18.026;2022-12-20T04:56:08;101433.41;;;2.54;81.85
76728;BME280;65652;53.132;18.026;2022-12-20T04:58:35;101435.76;;;2.56;81.70
76728;BME280;65652;53.132;18.026;2022-12-20T05:01:03;101430.30;;;2.57;81.76
76728;BME280;65652;53.132;18.026;2022-12-20T05:03:37;101427.27;;;2.55;81.63
76728;BME280;65652;53.132;18.026;2022-12-20T05:06:04;101434.27;;;2.54;81.75
76728;BME280;65652;53.132;18.026;2022-12-20T05:08:33;101431.97;;;2.55;81.80
76728;BME280;65652;53.132;18.026;2022-12-20T05:11:01;101431.90;;;2.57;81.83
76728;BME280;65652;53.132;18.026;2022-12-20T05:13:28;101436.33;;;2.59;81.72
76728;BME280;65652;53.132;18.026;2022-12-20T05:15:56;101425.65;;;2.60;81.56
76728;BME280;65652;53.132;18.026;2022-12-20T05:18:25;101415.48;;;2.62;81.52
76728;BME280;65652;53.132;18.026;2022-12-20T05:20:58;101413.55;;;2.62;81.47
76728;BME280;65652;53.132;18.026;2022-12-20T05:23:46;101418.94;;;2.62;81.55
76728;BME280;65652;53.132;18.026;2022-12-20T05:26:36;101417.30;;;2.60;81.41
76728;BME280;65652;53.132;18.026;2022-12-20T05:29:04;101418.30;;;2.60;81.30
76728;BME280;65652;53.132;18.026;2022-12-20T05:31:31;101420.72;;;2.61;81.38
76728;BME280;65652;53.132;18.026;2022-12-20T05:33:58;101408.98;;;2.63;81.19
76728;BME280;65652;53.132;18.026;2022-12-20T05:36:28;101412.73;;;2.65;81.30
76728;BME280;65652;53.132;18.026;2022-12-20T05:38:55;101407.23;;;2.67;81.19
76728;BME280;65652;53.132;18.026;2022-12-20T05:41:22;101401.52;;;2.65;81.17
76728;BME280;65652;53.132;18.026;2022-12-20T05:43:51;101394.98;;;2.64;81.10
76728;BME280;65652;53.132;18.026;2022-12-20T05:46:18;101393.79;;;2.63;80.95
76728;BME280;65652;53.132;18.026;2022-12-20T05:48:58;101399.06;;;2.62;81.26
76728;BME280;65652;53.132;18.026;2022-12-20T05:51:25;101400.75;;;2.63;81.03
76728;BME280;65652;53.132;18.026;2022-12-20T05:53:57;101405.19;;;2.65;81.14
76728;BME280;65652;53.132;18.026;2022-12-20T05:56:38;101411.01;;;2.68;80.87
76728;BME280;65652;53.132;18.026;2022-12-20T05:59:05;101413.73;;;2.69;81.05
76728;BME280;65652;53.132;18.026;2022-12-20T06:01:32;101413.42;;;2.72;81.13
76728;BME280;65652;53.132;18.026;2022-12-20T06:04:00;101419.20;;;2.72;80.68
76728;BME280;65652;53.132;18.026;2022-12-20T06:06:27;101420.62;;;2.71;80.86
76728;BME280;65652;53.132;18.026;2022-12-20T06:08:54;101413.36;;;2.70;80.75
76728;BME280;65652;53.132;18.026;2022-12-20T06:11:44;101408.39;;;2.68;80.55
76728;BME280;65652;53.132;18.026;2022-12-20T06:14:14;101415.73;;;2.68;80.77
76728;BME280;65652;53.132;18.026;2022-12-20T06:16:45;101416.71;;;2.69;80.61
76728;BME280;65652;53.132;18.026;2022-12-20T06:19:13;101413.17;;;2.70;80.57
76728;BME280;65652;53.132;18.026;2022-12-20T06:21:40;101411.73;;;2.71;80.66
76728;BME280;65652;53.132;18.026;2022-12-20T06:24:09;101417.94;;;2.73;80.62
76728;BME280;65652;53.132;18.026;2022-12-20T06:26:39;101412.55;;;2.73;80.67
76728;BME280;65652;53.132;18.026;2022-12-20T06:29:06;101417.25;;;2.73;80.55
76728;BME280;65652;53.132;18.026;2022-12-20T06:31:41;101410.16;;;2.72;80.39
76728;BME280;65652;53.132;18.026;2022-12-20T06:34:08;101416.29;;;2.71;80.59
76728;BME280;65652;53.132;18.026;2022-12-20T06:36:39;101417.49;;;2.71;80.68
76728;BME280;65652;53.132;18.026;2022-12-20T06:39:08;101420.08;;;2.72;80.44
76728;BME280;65652;53.132;18.026;2022-12-20T06:41:38;101420.54;;;2.74;80.71
76728;BME280;65652;53.132;18.026;2022-12-20T06:44:05;101425.59;;;2.77;80.54
76728;BME280;65652;53.132;18.026;2022-12-20T06:46:33;101427.35;;;2.81;80.54
76728;BME280;65652;53.132;18.026;2022-12-20T06:49:00;101430.88;;;2.84;80.39
76728;BME280;65652;53.132;18.026;2022-12-20T06:51:27;101430.69;;;2.84;80.40
76728;BME280;65652;53.132;18.026;2022-12-20T06:53:54;101435.18;;;2.85;80.24
76728;BME280;65652;53.132;18.026;2022-12-20T06:56:22;101435.23;;;2.85;80.07
76728;BME280;65652;53.132;18.026;2022-12-20T06:58:49;101441.02;;;2.83;80.18
76728;BME280;65652;53.132;18.026;2022-12-20T07:01:16;101447.35;;;2.82;79.93
76728;BME280;65652;53.132;18.026;2022-12-20T07:03:43;101444.38;;;2.83;80.37
76728;BME280;65652;53.132;18.026;2022-12-20T07:06:10;101443.48;;;2.83;80.05
76728;BME280;65652;53.132;18.026;2022-12-20T07:08:36;101440.13;;;2.84;80.03
76728;BME280;65652;53.132;18.026;2022-12-20T07:11:05;101447.36;;;2.86;79.95
76728;BME280;65652;53.132;18.026;2022-12-20T07:13:33;101442.86;;;2.89;80.00
76728;BME280;65652;53.132;18.026;2022-12-20T07:16:01;101443.70;;;2.90;79.93
76728;BME280;65652;53.132;18.026;2022-12-20T07:18:28;101455.66;;;2.92;79.68
76728;BME280;65652;53.132;18.026;2022-12-20T07:21:03;101463.33;;;2.92;79.84
76728;BME280;65652;53.132;18.026;2022-12-20T07:23:31;101460.65;;;2.93;79.84
76728;BME280;65652;53.132;18.026;2022-12-20T07:25:59;101459.28;;;2.93;79.73
76728;BME280;65652;53.132;18.026;2022-12-20T07:28:26;101459.39;;;2.94;79.65
76728;BME280;65652;53.132;18.026;2022-12-20T07:30:53;101456.75;;;2.94;79.76
76728;BME280;65652;53.132;18.026;2022-12-20T07:33:20;101469.16;;;2.98;79.70
76728;BME280;65652;53.132;18.026;2022-12-20T07:35:47;101475.00;;;3.00;79.45
76728;BME280;65652;53.132;18.026;2022-12-20T07:38:14;101478.94;;;3.02;79.55
76728;BME280;65652;53.132;18.026;2022-12-20T07:40:42;101476.75;;;3.04;79.52
76728;BME280;65652;53.132;18.026;2022-12-20T07:43:09;101475.59;;;3.06;79.56
76728;BME280;65652;53.132;18.026;2022-12-20T07:45:36;101458.42;;;3.08;79.62
76728;BME280;65652;53.132;18.026;2022-12-20T07:48:04;101447.33;;;3.10;79.42
76728;BME280;65652;53.132;18.026;2022-12-20T07:50:32;101450.77;;;3.11;79.34
76728;BME280;65652;53.132;18.026;2022-12-20T07:53:00;101443.78;;;3.11;79.42
76728;BME280;65652;53.132;18.026;2022-12-20T07:55:27;101450.77;;;3.11;79.30
76728;BME280;65652;53.132;18.026;2022-12-20T07:58:02;101450.29;;;3.10;79.27
76728;BME280;65652;53.132;18.026;2022-12-20T08:00:30;101464.95;;;3.10;79.38
76728;BME280;65652;53.132;18.026;2022-12-20T08:03:06;101464.76;;;3.10;79.15
76728;BME280;65652;53.132;18.026;2022-12-20T08:05:36;101457.87;;;3.13;78.92
76728;BME280;65652;53.132;18.026;2022-12-20T08:08:04;101458.20;;;3.17;79.15
76728;BME280;65652;53.132;18.026;2022-12-20T08:10:31;101455.42;;;3.20;79.20
76728;BME280;65652;53.132;18.026;2022-12-20T08:12:59;101461.60;;;3.22;78.98
76728;BME280;65652;53.132;18.026;2022-12-20T08:15:27;101451.10;;;3.23;79.06
76728;BME280;65652;53.132;18.026;2022-12-20T08:17:54;101458.19;;;3.21;78.81
76728;BME280;65652;53.132;18.026;2022-12-20T08:20:21;101459.59;;;3.21;78.97
76728;BME280;65652;53.132;18.026;2022-12-20T08:22:48;101462.70;;;3.22;78.94
76728;BME280;65652;53.132;18.026;2022-12-20T08:25:15;101452.83;;;3.24;78.70
76728;BME280;65652;53.132;18.026;2022-12-20T08:27:42;101445.87;;;3.27;78.73
76728;BME280;65652;53.132;18.026;2022-12-20T08:30:09;101442.05;;;3.31;78.78
76728;BME280;65652;53.132;18.026;2022-12-20T08:32:37;101443.27;;;3.34;79.01
76728;BME280;65652;53.132;18.026;2022-12-20T08:35:04;101454.33;;;3.36;78.50
76728;BME280;65652;53.132;18.026;2022-12-20T08:37:32;101459.82;;;3.39;78.61
76728;BME280;65652;53.132;18.026;2022-12-20T08:39:59;101463.64;;;3.39;78.44
76728;BME280;65652;53.132;18.026;2022-12-20T08:42:27;101455.45;;;3.39;78.39
76728;BME280;65652;53.132;18.026;2022-12-20T08:44:53;101454.64;;;3.41;78.41
76728;BME280;65652;53.132;18.026;2022-12-20T08:47:20;101453.08;;;3.45;78.21
76728;BME280;65652;53.132;18.026;2022-12-20T08:49:47;101442.64;;;3.48;78.20
76728;BME280;65652;53.132;18.026;2022-12-20T08:52:14;101431.81;;;3.52;78.24
76728;BME280;65652;53.132;18.026;2022-12-20T08:54:42;101434.39;;;3.56;78.12
76728;BME280;65652;53.132;18.026;2022-12-20T08:57:09;101436.15;;;3.59;77.81
76728;BME280;65652;53.132;18.026;2022-12-20T08:59:36;101431.65;;;3.63;77.92
76728;BME280;65652;53.132;18.026;2022-12-20T09:02:03;101420.68;;;3.66;77.76
76728;BME280;65652;53.132;18.026;2022-12-20T09:04:30;101421.92;;;3.69;77.74
76728;BME280;65652;53.132;18.026;2022-12-20T09:06:57;101421.25;;;3.72;77.67
76728;BME280;65652;53.132;18.026;2022-12-20T09:09:24;101419.30;;;3.76;77.41
76728;BME280;65652;53.132;18.026;2022-12-20T09:11:50;101415.60;;;3.84;77.59
76728;BME280;65652;53.132;18.026;2022-12-20T09:14:18;101426.39;;;3.92;77.35
76728;BME280;65652;53.132;18.026;2022-12-20T09:16:45;101420.07;;;4.00;77.35
76728;BME280;65652;53.132;18.026;2022-12-20T09:19:15;101424.06;;;4.04;77.20
76728;BME280;65652;53.132;18.026;2022-12-20T09:21:42;101430.39;;;4.06;77.30
76728;BME280;65652;53.132;18.026;2022-12-20T09:24:09;101428.62;;;4.07;76.85
76728;BME280;65652;53.132;18.026;2022-12-20T09:26:36;101427.52;;;4.08;76.96
76728;BME280;65652;53.132;18.026;2022-12-20T09:29:03;101433.58;;;4.09;77.15
76728;BME280;65652;53.132;18.026;2022-12-20T09:31:31;101433.09;;;4.08;76.82
76728;BME280;65652;53.132;18.026;2022-12-20T09:33:58;101431.33;;;4.09;76.97
76728;BME280;65652;53.132;18.026;2022-12-20T09:36:27;101438.16;;;4.12;76.87
76728;BME280;65652;53.132;18.026;2022-12-20T09:38:55;101431.17;;;4.16;76.83
76728;BME280;65652;53.132;18.026;2022-12-20T09:43:52;101424.57;;;4.22;76.59
76728;BME280;65652;53.132;18.026;2022-12-20T09:46:19;101423.14;;;4.23;76.61
76728;BME280;65652;53.132;18.026;2022-12-20T09:48:46;101419.64;;;4.23;76.29
76728;BME280;65652;53.132;18.026;2022-12-20T09:54:15;101409.80;;;4.24;76.25
76728;BME280;65652;53.132;18.026;2022-12-20T09:57:11;101398.25;;;4.24;76.15
76728;BME280;65652;53.132;18.026;2022-12-20T09:59:41;101400.52;;;4.28;76.24
76728;BME280;65652;53.132;18.026;2022-12-20T10:02:19;101409.33;;;4.30;76.44
76728;BME280;65652;53.132;18.026;2022-12-20T10:04:46;101404.04;;;4.30;76.20
76728;BME280;65652;53.132;18.026;2022-12-20T10:13:11;101403.31;;;4.31;76.00
76728;BME280;65652;53.132;18.026;2022-12-20T10:15:50;101401.30;;;4.30;76.10
76728;BME280;65652;53.132;18.026;2022-12-20T10:18:45;101407.95;;;4.29;76.01
76728;BME280;65652;53.132;18.026;2022-12-20T10:21:36;101405.27;;;4.27;75.60
76728;BME280;65652;53.132;18.026;2022-12-20T10:27:14;101391.71;;;4.29;75.73
76728;BME280;65652;53.132;18.026;2022-12-20T10:29:42;101387.77;;;4.30;75.89
76728;BME280;65652;53.132;18.026;2022-12-20T10:32:13;101384.30;;;4.34;75.89
76728;BME280;65652;53.132;18.026;2022-12-20T10:34:49;101381.33;;;4.37;75.76
76728;BME280;65652;53.132;18.026;2022-12-20T10:37:17;101380.86;;;4.43;76.12
76728;BME280;65652;53.132;18.026;2022-12-20T10:39:49;101383.81;;;4.46;75.93
76728;BME280;65652;53.132;18.026;2022-12-20T10:42:25;101403.52;;;4.48;75.54
76728;BME280;65652;53.132;18.026;2022-12-20T10:44:53;101400.06;;;4.47;75.71
76728;BME280;65652;53.132;18.026;2022-12-20T10:47:42;101398.98;;;4.47;75.49
76728;BME280;65652;53.132;18.026;2022-12-20T10:50:14;101386.98;;;4.49;75.22
76728;BME280;65652;53.132;18.026;2022-12-20T10:52:43;101377.63;;;4.51;75.22
76728;BME280;65652;53.132;18.026;2022-12-20T11:01:26;101381.23;;;4.52;74.86
76728;BME280;65652;53.132;18.026;2022-12-20T11:03:51;101378.69;;;4.51;74.90
76728;BME280;65652;53.132;18.026;2022-12-20T11:06:22;101372.98;;;4.50;75.15
76728;BME280;65652;53.132;18.026;2022-12-20T11:08:49;101368.02;;;4.47;75.11
76728;BME280;65652;53.132;18.026;2022-12-20T11:11:22;101363.88;;;4.46;75.15
76728;BME280;65652;53.132;18.026;2022-12-20T11:13:51;101360.30;;;4.48;75.42
76728;BME280;65652;53.132;18.026;2022-12-20T11:16:24;101358.49;;;4.49;75.36
76728;BME280;65652;53.132;18.026;2022-12-20T11:19:07;101360.81;;;4.52;75.08
76728;BME280;65652;53.132;18.026;2022-12-20T11:22:01;101363.23;;;4.52;75.26
76728;BME280;65652;53.132;18.026;2022-12-20T11:24:38;101364.94;;;4.50;75.23
76728;BME280;65652;53.132;18.026;2022-12-20T11:35:46;101369.59;;;4.34;75.50
76728;BME280;65652;53.132;18.026;2022-12-20T11:38:35;101372.52;;;4.31;75.67
76728;BME280;65652;53.132;18.026;2022-12-20T11:55:26;101361.86;;;4.18;76.39
76728;BME280;65652;53.132;18.026;2022-12-20T12:00:22;101349.63;;;4.14;76.47
76728;BME280;65652;53.132;18.026;2022-12-20T12:03:07;101340.96;;;4.13;76.61
76728;BME280;65652;53.132;18.026;2022-12-20T12:05:46;101342.23;;;4.12;76.74
76728;BME280;65652;53.132;18.026;2022-12-20T12:08:21;101345.31;;;4.13;76.89
76728;BME280;65652;53.132;18.026;2022-12-20T12:11:03;101335.28;;;4.14;76.90
76728;BME280;65652;53.132;18.026;2022-12-20T12:13:34;101329.86;;;4.14;77.27
76728;BME280;65652;53.132;18.026;2022-12-20T12:16:15;101328.52;;;4.13;77.09
76728;BME280;65652;53.132;18.026;2022-12-20T12:18:44;101331.38;;;4.12;77.26
76728;BME280;65652;53.132;18.026;2022-12-20T12:21:24;101333.72;;;4.11;77.37
76728;BME280;65652;53.132;18.026;2022-12-20T12:26:31;101329.17;;;4.11;77.36
76728;BME280;65652;53.132;18.026;2022-12-20T12:29:03;101322.61;;;4.12;77.63
76728;BME280;65652;53.132;18.026;2022-12-20T12:31:43;101324.02;;;4.13;77.58
76728;BME280;65652;53.132;18.026;2022-12-20T12:40:16;101314.66;;;4.08;77.51
76728;BME280;65652;53.132;18.026;2022-12-20T12:45:57;101319.75;;;4.00;77.68
76728;BME280;65652;53.132;18.026;2022-12-20T12:48:58;101310.20;;;3.99;77.60
76728;BME280;65652;53.132;18.026;2022-12-20T12:51:39;101305.20;;;4.01;77.69
76728;BME280;65652;53.132;18.026;2022-12-20T12:56:38;101301.46;;;4.06;77.60
76728;BME280;65652;53.132;18.026;2022-12-20T13:07:00;101296.02;;;4.13;77.44
76728;BME280;65652;53.132;18.026;2022-12-20T13:11:56;101282.44;;;4.16;77.21
76728;BME280;65652;53.132;18.026;2022-12-20T13:29:53;101269.56;;;4.18;76.87
76728;BME280;65652;53.132;18.026;2022-12-20T13:32:57;101271.07;;;4.16;76.99
76728;BME280;65652;53.132;18.026;2022-12-20T13:38:00;101277.09;;;4.18;76.72
76728;BME280;65652;53.132;18.026;2022-12-20T13:40:43;101273.15;;;4.19;76.82
76728;BME280;65652;53.132;18.026;2022-12-20T13:45:50;101277.40;;;4.25;76.65
76728;BME280;65652;53.132;18.026;2022-12-20T13:48:24;101281.95;;;4.28;76.70
76728;BME280;65652;53.132;18.026;2022-12-20T13:50:53;101280.27;;;4.30;76.55
76728;BME280;65652;53.132;18.026;2022-12-20T13:53:22;101274.30;;;4.31;76.42
76728;BME280;65652;53.132;18.026;2022-12-20T13:55:50;101263.29;;;4.31;76.19
76728;BME280;65652;53.132;18.026;2022-12-20T14:00:46;101258.60;;;4.30;76.52
76728;BME280;65652;53.132;18.026;2022-12-20T14:03:25;101256.69;;;4.30;76.53
76728;BME280;65652;53.132;18.026;2022-12-20T14:06:08;101257.39;;;4.33;76.46
76728;BME280;65652;53.132;18.026;2022-12-20T14:08:40;101252.77;;;4.35;76.22
76728;BME280;65652;53.132;18.026;2022-12-20T14:11:24;101255.33;;;4.36;76.28
76728;BME280;65652;53.132;18.026;2022-12-20T14:16:27;101252.65;;;4.37;76.26
76728;BME280;65652;53.132;18.026;2022-12-20T14:21:28;101256.02;;;4.36;76.30
76728;BME280;65652;53.132;18.026;2022-12-20T14:23:57;101253.61;;;4.35;76.60
76728;BME280;65652;53.132;18.026;2022-12-20T14:26:29;101244.05;;;4.34;76.38
76728;BME280;65652;53.132;18.026;2022-12-20T14:28:57;101245.91;;;4.35;76.65
76728;BME280;65652;53.132;18.026;2022-12-20T14:31:36;101240.27;;;4.36;76.57
76728;BME280;65652;53.132;18.026;2022-12-20T14:34:11;101240.02;;;4.38;76.41
76728;BME280;65652;53.132;18.026;2022-12-20T14:36:45;101238.58;;;4.39;76.36
76728;BME280;65652;53.132;18.026;2022-12-20T14:42:22;101240.56;;;4.37;76.12
76728;BME280;65652;53.132;18.026;2022-12-20T14:45:01;101236.26;;;4.36;76.03
76728;BME280;65652;53.132;18.026;2022-12-20T14:47:28;101228.33;;;4.34;76.21
76728;BME280;65652;53.132;18.026;2022-12-20T14:50:01;101231.61;;;4.35;76.38
76728;BME280;65652;53.132;18.026;2022-12-20T14:52:34;101229.53;;;4.34;76.13
76728;BME280;65652;53.132;18.026;2022-12-20T14:55:10;101229.12;;;4.35;76.37
76728;BME280;65652;53.132;18.026;2022-12-20T14:57:49;101217.65;;;4.38;76.34
76728;BME280;65652;53.132;18.026;2022-12-20T15:13:33;101231.05;;;4.39;75.84
76728;BME280;65652;53.132;18.026;2022-12-20T15:16:03;101235.87;;;4.40;75.99
76728;BME280;65652;53.132;18.026;2022-12-20T15:18:30;101239.27;;;4.42;75.94
76728;BME280;65652;53.132;18.026;2022-12-20T15:21:22;101225.89;;;4.43;75.85
76728;BME280;65652;53.132;18.026;2022-12-20T15:23:53;101194.63;;;4.46;76.06
76728;BME280;65652;53.132;18.026;2022-12-20T15:26:23;101192.05;;;4.48;76.03
76728;BME280;65652;53.132;18.026;2022-12-20T15:28:50;101209.88;;;4.48;75.99